Time;durP1;ratioP1;P1;durP2;ratioP2;P2;SDS_P1;SDS_P2;PMS_P1;PMS_P2;Temp;Humidity;BMP_temperature;BMP_pressure;BME280_temperature;BME280_humidity;BME280_pressure;Samples;Min_cycle;Max_cycle;Signal;HPM_P1;HPM_P2
2021/11/28 00:01:43;;;;;;;5.15;3.47;;;;;;;;;;5047688;27;84697;-61
2021/11/28 00:04:13;;;;;;;3.40;3.00;;;;;;;;;;5046802;27;83319;-60
2021/11/28 00:06:50;;;;;;;6.13;3.67;;;;;;;;;;5043739;27;81928;-59
2021/11/28 00:09:39;;;;;;;4.93;4.43;;;;;;;;;;5024956;28;81884;-58
2021/11/28 00:14:40;;;;;;;4.30;3.50;;;;;;;;;;5025698;28;82441;-59
2021/11/28 00:17:08;;;;;;;5.53;4.72;;;;;;;;;;5025087;28;81894;-58
2021/11/28 00:19:35;;;;;;;4.05;3.63;;;;;;;;;;5026946;28;81151;-59
2021/11/28 00:22:03;;;;;;;4.18;3.25;;;;;;;;;;5027361;28;83769;-60
2021/11/28 00:24:36;;;;;;;5.20;3.55;;;;;;;;;;5027349;28;82472;-60
2021/11/28 00:27:03;;;;;;;4.75;4.28;;;;;;;;;;5025881;28;83151;-60
2021/11/28 00:29:31;;;;;;;3.88;3.47;;;;;;;;;;5026418;28;81792;-61
2021/11/28 00:31:58;;;;;;;5.95;4.50;;;;;;;;;;5025539;28;85379;-60
2021/11/28 00:34:25;;;;;;;3.78;3.40;;;;;;;;;;5025154;28;83603;-61
2021/11/28 00:36:53;;;;;;;6.93;3.58;;;;;;;;;;5026832;28;81923;-60
2021/11/28 00:39:20;;;;;;;5.15;2.97;;;;;;;;;;5025793;28;81914;-60
2021/11/28 00:41:47;;;;;;;5.72;3.97;;;;;;;;;;5024552;28;83463;-60
2021/11/28 00:44:29;;;;;;;4.35;3.85;;;;;;;;;;5025150;28;83415;-60
2021/11/28 00:46:56;;;;;;;4.35;3.03;;;;;;;;;;5025673;28;81809;-60
2021/11/28 00:49:25;;;;;;;2.90;2.40;;;;;;;;;;5025726;28;82218;-60
2021/11/28 00:51:56;;;;;;;2.20;2.00;;;;;;;;;;5025289;28;83314;-60
2021/11/28 00:54:28;;;;;;;6.90;2.00;;;;;;;;;;5026087;28;82454;-60
2021/11/28 00:56:56;;;;;;;4.15;2.22;;;;;;;;;;5027638;28;81708;-60
2021/11/28 00:59:27;;;;;;;4.30;2.47;;;;;;;;;;5025001;28;81855;-60
2021/11/28 01:01:55;;;;;;;1.90;1.80;;;;;;;;;;5025475;28;85353;-60
2021/11/28 01:04:22;;;;;;;2.88;2.17;;;;;;;;;;5026455;28;81874;-60
2021/11/28 01:06:49;;;;;;;3.95;2.20;;;;;;;;;;5027232;28;81850;-60
2021/11/28 01:09:16;;;;;;;3.60;2.83;;;;;;;;;;5025698;28;81127;-60
2021/11/28 01:11:43;;;;;;;3.53;2.78;;;;;;;;;;5026701;28;83604;-60
2021/11/28 01:14:10;;;;;;;3.38;3.10;;;;;;;;;;5026962;28;82312;-60
2021/11/28 01:16:38;;;;;;;2.92;2.60;;;;;;;;;;5026037;28;82785;-60
2021/11/28 01:19:05;;;;;;;3.33;3.03;;;;;;;;;;5029896;28;81770;-59
2021/11/28 01:21:32;;;;;;;2.78;2.38;;;;;;;;;;5026058;28;84026;-60
2021/11/28 01:23:59;;;;;;;2.83;2.55;;;;;;;;;;5026976;28;82267;-60
2021/11/28 01:26:28;;;;;;;2.28;2.10;;;;;;;;;;5024868;28;82281;-60
2021/11/28 01:28:57;;;;;;;3.30;2.75;;;;;;;;;;5025533;28;81705;-60
2021/11/28 01:31:27;;;;;;;2.15;1.90;;;;;;;;;;5025354;28;84762;-60
2021/11/28 01:33:54;;;;;;;1.80;1.70;;;;;;;;;;5025575;28;82686;-60
2021/11/28 01:36:21;;;;;;;2.50;1.80;;;;;;;;;;5025983;28;81840;-61
2021/11/28 01:38:48;;;;;;;1.75;1.65;;;;;;;;;;5024128;28;82169;-61
2021/11/28 01:41:15;;;;;;;2.20;2.00;;;;;;;;;;5024732;28;85868;-60
2021/11/28 01:43:43;;;;;;;2.85;2.10;;;;;;;;;;5024366;28;84384;-61
2021/11/28 01:46:10;;;;;;;2.20;2.00;;;;;;;;;;5005137;28;82470;-59
2021/11/28 01:48:37;;;;;;;5.25;3.03;;;;;;;;;;5021623;28;81902;-59
2021/11/28 01:51:05;;;;;;;2.75;2.20;;;;;;;;;;5004994;28;85107;-60
2021/11/28 01:53:34;;;;;;;6.53;2.72;;;;;;;;;;5018303;28;85238;-60
2021/11/28 01:56:02;;;;;;;2.33;2.13;;;;;;;;;;5025186;28;81606;-60
2021/11/28 01:58:39;;;;;;;1.80;1.70;;;;;;;;;;5040165;28;80923;-62
2021/11/28 02:01:11;;;;;;;3.10;2.88;;;;;;;;;;5045091;28;85038;-61
2021/11/28 02:03:40;;;;;;;3.63;3.28;;;;;;;;;;5045011;28;85158;-61
2021/11/28 02:06:13;;;;;;;5.07;3.63;;;;;;;;;;5044846;27;82761;-61
2021/11/28 02:08:41;;;;;;;5.18;4.70;;;;;;;;;;5046546;27;81649;-61
2021/11/28 02:11:09;;;;;;;7.13;3.97;;;;;;;;;;5044232;28;85129;-60
2021/11/28 02:13:36;;;;;;;3.38;3.00;;;;;;;;;;5044812;28;83536;-60
2021/11/28 02:16:07;;;;;;;2.80;2.60;;;;;;;;;;5044241;28;82233;-60
2021/11/28 02:18:36;;;;;;;3.65;3.35;;;;;;;;;;5046477;27;81845;-60
2021/11/28 02:21:05;;;;;;;5.45;3.80;;;;;;;;;;5043741;28;84351;-60
2021/11/28 02:23:35;;;;;;;4.05;3.72;;;;;;;;;;5044900;28;85048;-61
2021/11/28 02:26:06;;;;;;;3.92;3.63;;;;;;;;;;5044408;28;83108;-60
2021/11/28 02:28:35;;;;;;;6.85;4.50;;;;;;;;;;5044788;28;82486;-60
2021/11/28 02:31:02;;;;;;;4.00;3.60;;;;;;;;;;5044234;28;86150;-59
2021/11/28 02:33:30;;;;;;;6.03;4.00;;;;;;;;;;5045303;27;83142;-60
2021/11/28 02:35:58;;;;;;;6.35;2.85;;;;;;;;;;5044291;28;81898;-60
2021/11/28 02:38:26;;;;;;;3.22;2.92;;;;;;;;;;5029263;28;81883;-60
2021/11/28 02:40:53;;;;;;;3.60;3.25;;;;;;;;;;5024336;28;85326;-60
2021/11/28 02:43:22;;;;;;;4.57;4.15;;;;;;;;;;5023631;28;83992;-60
2021/11/28 02:45:49;;;;;;;3.85;3.42;;;;;;;;;;5024258;28;81841;-61
2021/11/28 02:48:17;;;;;;;3.95;3.63;;;;;;;;;;5023666;28;81714;-60
2021/11/28 02:50:45;;;;;;;4.22;3.83;;;;;;;;;;5023916;28;85548;-60
2021/11/28 02:53:13;;;;;;;4.00;3.58;;;;;;;;;;5025359;28;82265;-60
2021/11/28 02:55:46;;;;;;;3.92;3.63;;;;;;;;;;5023668;28;83109;-59
2021/11/28 02:58:15;;;;;;;4.43;3.67;;;;;;;;;;5026006;28;81843;-60
2021/11/28 03:00:46;;;;;;;4.95;4.03;;;;;;;;;;5023844;28;85312;-60
2021/11/28 03:03:13;;;;;;;5.05;4.10;;;;;;;;;;5025904;28;82347;-60
2021/11/28 03:05:41;;;;;;;2.88;2.67;;;;;;;;;;5023196;28;83221;-61
2021/11/28 03:08:08;;;;;;;3.10;2.80;;;;;;;;;;5024250;28;81887;-61
2021/11/28 03:10:45;;;;;;;3.80;3.47;;;;;;;;;;5024611;28;82659;-60
2021/11/28 03:13:32;;;;;;;3.92;3.53;;;;;;;;;;5038435;28;85128;-60
2021/11/28 03:16:02;;;;;;;4.20;3.80;;;;;;;;;;5039636;28;81955;-59
2021/11/28 03:18:32;;;;;;;5.60;4.80;;;;;;;;;;5044110;28;82351;-58
2021/11/28 03:21:06;;;;;;;8.32;5.60;;;;;;;;;;5042789;28;86501;-59
2021/11/28 03:23:34;;;;;;;6.43;4.82;;;;;;;;;;5043415;28;85867;-59
2021/11/28 03:26:23;;;;;;;5.80;5.22;;;;;;;;;;5044808;27;82898;-59
2021/11/28 03:29:06;;;;;;;11.52;8.68;;;;;;;;;;5043609;28;81959;-60
2021/11/28 03:31:54;;;;;;;8.10;7.40;;;;;;;;;;5044994;28;82253;-58
2021/11/28 03:34:36;;;;;;;6.20;5.60;;;;;;;;;;5005154;28;82092;-58
2021/11/28 03:37:17;;;;;;;6.47;5.88;;;;;;;;;;5002775;28;81917;-59
2021/11/28 03:39:45;;;;;;;7.90;6.25;;;;;;;;;;5016643;28;81183;-59
2021/11/28 03:42:15;;;;;;;3.90;3.60;;;;;;;;;;5004139;28;82629;-59
2021/11/28 03:44:46;;;;;;;5.78;5.03;;;;;;;;;;5023227;28;84879;-59
2021/11/28 03:47:16;;;;;;;8.15;6.90;;;;;;;;;;5030428;28;82782;-59
2021/11/28 03:49:47;;;;;;;7.25;6.50;;;;;;;;;;5025101;28;81901;-59
2021/11/28 03:52:14;;;;;;;6.22;5.63;;;;;;;;;;5025058;28;82286;-59
2021/11/28 03:54:41;;;;;;;4.80;4.32;;;;;;;;;;5023138;28;85019;-59
2021/11/28 03:57:09;;;;;;;4.78;4.25;;;;;;;;;;5023322;28;83042;-59
2021/11/28 03:59:37;;;;;;;3.50;3.20;;;;;;;;;;5023024;28;81741;-59
2021/11/28 04:02:05;;;;;;;4.53;4.13;;;;;;;;;;5026074;28;83959;-59
2021/11/28 04:04:33;;;;;;;5.40;4.68;;;;;;;;;;5026185;28;82539;-59
2021/11/28 04:07:13;;;;;;;9.63;8.63;;;;;;;;;;5026342;28;82696;-59
2021/11/28 04:09:42;;;;;;;11.57;9.13;;;;;;;;;;5026155;28;82000;-59
2021/11/28 04:12:11;;;;;;;12.10;10.25;;;;;;;;;;5025749;28;86297;-58
2021/11/28 04:14:39;;;;;;;11.27;9.00;;;;;;;;;;5025737;28;85630;-59
2021/11/28 04:17:07;;;;;;;10.63;9.52;;;;;;;;;;5026279;28;86070;-56
2021/11/28 04:19:37;;;;;;;10.93;9.63;;;;;;;;;;5028723;28;81771;-58
2021/11/28 04:22:06;;;;;;;11.13;9.80;;;;;;;;;;5026112;28;84768;-60
2021/11/28 04:24:33;;;;;;;6.25;5.65;;;;;;;;;;5026452;28;84402;-59
2021/11/28 04:27:02;;;;;;;6.03;5.53;;;;;;;;;;5025763;28;83045;-60
2021/11/28 04:29:29;;;;;;;4.95;4.45;;;;;;;;;;5026634;28;81153;-60
2021/11/28 04:31:56;;;;;;;5.05;4.55;;;;;;;;;;5025676;28;85147;-59
2021/11/28 04:34:26;;;;;;;3.50;3.20;;;;;;;;;;5026220;28;85074;-59
2021/11/28 04:36:54;;;;;;;3.50;3.20;;;;;;;;;;5024304;28;82904;-59
2021/11/28 04:39:23;;;;;;;4.93;3.40;;;;;;;;;;5026138;28;81880;-59
2021/11/28 04:41:50;;;;;;;4.30;3.90;;;;;;;;;;5016821;28;85343;-59
2021/11/28 04:44:17;;;;;;;4.55;3.95;;;;;;;;;;5015263;28;84957;-59
2021/11/28 04:46:45;;;;;;;4.38;3.97;;;;;;;;;;5033426;28;83058;-59
2021/11/28 04:49:12;;;;;;;6.28;3.70;;;;;;;;;;5044762;28;81934;-59
2021/11/28 04:51:39;;;;;;;3.63;3.33;;;;;;;;;;5045323;28;85381;-59
2021/11/28 04:54:07;;;;;;;5.57;4.63;;;;;;;;;;5046688;27;81167;-59
2021/11/28 04:56:35;;;;;;;7.68;5.43;;;;;;;;;;5045556;28;81979;-59
2021/11/28 04:59:02;;;;;;;4.60;3.03;;;;;;;;;;5046345;27;82196;-58
2021/11/28 05:01:35;;;;;;;3.55;3.22;;;;;;;;;;5044990;28;85596;-60
2021/11/28 05:04:14;;;;;;;3.22;3.00;;;;;;;;;;5044623;28;85582;-60
2021/11/28 05:06:44;;;;;;;3.70;3.40;;;;;;;;;;5046349;27;81685;-60
2021/11/28 05:09:31;;;;;;;4.10;3.70;;;;;;;;;;5046038;28;81890;-58
2021/11/28 05:11:58;;;;;;;5.78;3.20;;;;;;;;;;5044967;28;85157;-59
2021/11/28 05:14:29;;;;;;;4.25;3.22;;;;;;;;;;5044998;28;84493;-58
2021/11/28 05:16:56;;;;;;;2.72;2.53;;;;;;;;;;5044723;28;83170;-59
2021/11/28 05:19:29;;;;;;;5.80;3.73;;;;;;;;;;5045571;28;82251;-58
2021/11/28 05:22:14;;;;;;;7.73;4.13;;;;;;;;;;5044261;28;82073;-56
2021/11/28 05:24:43;;;;;;;10.98;4.65;;;;;;;;;;5044806;28;83872;-59
2021/11/28 05:27:10;;;;;;;8.35;6.97;;;;;;;;;;5043314;28;82876;-59
2021/11/28 05:29:37;;;;;;;5.43;4.90;;;;;;;;;;5046197;27;82294;-58
2021/11/28 05:32:05;;;;;;;5.70;4.90;;;;;;;;;;5044259;28;84167;-59
2021/11/28 05:35:01;;;;;;;4.53;4.13;;;;;;;;;;5036552;28;83231;-59
2021/11/28 05:37:46;;;;;;;5.25;4.05;;;;;;;;;;5045880;28;81793;-59
2021/11/28 05:40:19;;;;;;;3.30;2.95;;;;;;;;;;5045151;27;81738;-59
2021/11/28 05:42:49;;;;;;;6.20;5.57;;;;;;;;;;5044466;28;84913;-59
2021/11/28 05:45:18;;;;;;;7.38;6.68;;;;;;;;;;5044534;28;85228;-59
2021/11/28 05:48:03;;;;;;;11.05;9.88;;;;;;;;;;5046007;28;82116;-59
2021/11/28 05:50:56;;;;;;;12.40;10.98;;;;;;;;;;5020415;28;81944;-59
2021/11/28 05:53:25;;;;;;;13.07;11.77;;;;;;;;;;5015306;28;86024;-59
2021/11/28 05:55:52;;;;;;;10.48;9.48;;;;;;;;;;5021262;28;83426;-59
2021/11/28 05:58:20;;;;;;;11.60;10.38;;;;;;;;;;5022512;28;85708;-59
2021/11/28 06:00:48;;;;;;;12.52;11.23;;;;;;;;;;5018091;28;82884;-59
2021/11/28 06:03:17;;;;;;;12.43;10.85;;;;;;;;;;5019931;28;84801;-59
2021/11/28 06:06:10;;;;;;;13.18;11.60;;;;;;;;;;4997154;28;83092;-59
2021/11/28 06:08:57;;;;;;;15.20;11.98;;;;;;;;;;5014595;28;82654;-58
2021/11/28 06:11:24;;;;;;;12.82;9.93;;;;;;;;;;5007901;28;82961;-60
2021/11/28 06:13:53;;;;;;;11.25;10.13;;;;;;;;;;5004947;28;84751;-57
2021/11/28 06:16:39;;;;;;;14.85;9.88;;;;;;;;;;5007455;28;82959;-59
2021/11/28 06:19:24;;;;;;;9.65;8.55;;;;;;;;;;5008000;28;83145;-58
2021/11/28 06:22:08;;;;;;;9.50;8.50;;;;;;;;;;5008611;28;81975;-60
2021/11/28 06:24:44;;;;;;;9.00;7.85;;;;;;;;;;5008224;28;83674;-59
2021/11/28 06:27:17;;;;;;;8.30;6.80;;;;;;;;;;5007273;28;84782;-59
2021/11/28 06:29:47;;;;;;;7.05;5.45;;;;;;;;;;5005099;28;82873;-59
2021/11/28 06:32:15;;;;;;;11.70;5.72;;;;;;;;;;5004345;28;82257;-59
2021/11/28 06:35:11;;;;;;;4.95;4.45;;;;;;;;;;5006963;28;82398;-57
2021/11/28 06:44:21;;;;;;;10.88;9.02;;;;;;;;;;5021843;27;20380;-60
2021/11/28 06:46:48;;;;;;;15.20;12.25;;;;;;;;;;5015456;28;20516;-60
2021/11/28 06:49:15;;;;;;;14.93;12.02;;;;;;;;;;5065407;28;20087;-60
2021/11/28 06:52:01;;;;;;;14.85;11.38;;;;;;;;;;5063897;28;20048;-60
2021/11/28 06:54:46;;;;;;;15.23;9.05;;;;;;;;;;5065130;28;20517;-61
2021/11/28 06:57:13;;;;;;;9.60;8.57;;;;;;;;;;5066646;28;20040;-60
2021/11/28 06:59:40;;;;;;;14.82;9.73;;;;;;;;;;5047670;28;20055;-60
2021/11/28 07:02:12;;;;;;;15.65;11.38;;;;;;;;;;5048419;28;20045;-59
2021/11/28 07:05:03;;;;;;;9.85;8.18;;;;;;;;;;5059706;28;20073;-60
2021/11/28 07:07:36;;;;;;;7.55;6.75;;;;;;;;;;5048299;28;20091;-60
2021/11/28 07:10:06;;;;;;;14.02;5.90;;;;;;;;;;5045789;28;20440;-60
2021/11/28 07:12:33;;;;;;;9.48;8.10;;;;;;;;;;5063964;28;20501;-60
2021/11/28 07:14:59;;;;;;;10.73;8.38;;;;;;;;;;5060750;28;20059;-59
2021/11/28 07:17:27;;;;;;;9.60;8.70;;;;;;;;;;5041879;28;20041;-59
2021/11/28 07:19:58;;;;;;;12.05;9.85;;;;;;;;;;5046765;28;20166;-60
2021/11/28 07:22:48;;;;;;;10.20;9.15;;;;;;;;;;5061288;28;20102;-60
2021/11/28 07:25:17;;;;;;;9.63;7.18;;;;;;;;;;5046421;28;20573;-61
2021/11/28 07:27:47;;;;;;;7.53;6.68;;;;;;;;;;5043889;28;20037;-60
2021/11/28 07:30:14;;;;;;;8.18;7.38;;;;;;;;;;5066603;28;20396;-60
2021/11/28 07:32:44;;;;;;;11.38;9.10;;;;;;;;;;5047643;28;20547;-60
2021/11/28 07:35:30;;;;;;;14.45;11.63;;;;;;;;;;5064900;28;20159;-61
2021/11/28 07:38:03;;;;;;;15.02;10.77;;;;;;;;;;5056637;28;20044;-58
2021/11/28 07:40:30;;;;;;;12.70;10.00;;;;;;;;;;5044415;28;20041;-59
2021/11/28 07:43:30;;;;;;;13.60;12.20;;;;;;;;;;5033522;28;20126;-59
2021/11/28 07:46:16;;;;;;;11.52;10.23;;;;;;;;;;5056875;28;20124;-58
2021/11/28 07:48:59;;;;;;;14.35;11.02;;;;;;;;;;5037813;28;20500;-58
2021/11/28 07:51:27;;;;;;;11.43;9.45;;;;;;;;;;5036414;28;20403;-59
2021/11/28 07:53:56;;;;;;;10.05;8.55;;;;;;;;;;5051426;28;20041;-60
2021/11/28 07:56:25;;;;;;;12.27;10.68;;;;;;;;;;5026685;28;20056;-58
2021/11/28 07:59:11;;;;;;;12.40;9.70;;;;;;;;;;5042521;28;20056;-60
2021/11/28 08:01:47;;;;;;;14.52;11.45;;;;;;;;;;5030594;28;20072;-60
2021/11/28 08:04:34;;;;;;;12.05;10.48;;;;;;;;;;5038426;28;20609;-59
2021/11/28 08:07:30;;;;;;;13.32;10.15;;;;;;;;;;5031441;28;20499;-61
2021/11/28 08:10:16;;;;;;;10.75;9.65;;;;;;;;;;5040954;28;20052;-61
2021/11/28 08:12:43;;;;;;;10.63;8.82;;;;;;;;;;5042629;28;20045;-61
2021/11/28 08:15:15;;;;;;;9.48;8.48;;;;;;;;;;5045707;28;20033;-60
2021/11/28 08:17:43;;;;;;;10.82;9.25;;;;;;;;;;5048268;28;20049;-60
2021/11/28 08:20:10;;;;;;;11.52;8.88;;;;;;;;;;5045167;28;20057;-60
2021/11/28 08:22:38;;;;;;;11.88;10.35;;;;;;;;;;5040624;28;20041;-59
2021/11/28 08:25:07;;;;;;;11.75;8.70;;;;;;;;;;5045257;28;20045;-59
2021/11/28 08:27:34;;;;;;;10.40;9.27;;;;;;;;;;5041776;28;20048;-59
2021/11/28 08:30:09;;;;;;;11.90;7.75;;;;;;;;;;5039975;28;20529;-60
2021/11/28 08:32:54;;;;;;;13.07;7.85;;;;;;;;;;5037006;28;20052;-61
2021/11/28 08:36:00;;;;;;;10.93;7.60;;;;;;;;;;4960440;28;20053;-51
2021/11/28 08:38:28;;;;;;;9.57;8.57;;;;;;;;;;4958702;28;20046;-56
2021/11/28 08:40:55;;;;;;;9.35;8.40;;;;;;;;;;4995438;28;20296;-56
2021/11/28 08:43:22;;;;;;;9.13;7.82;;;;;;;;;;5036385;28;20037;-56
2021/11/28 08:45:49;;;;;;;12.20;9.25;;;;;;;;;;5039458;28;20043;-65
2021/11/28 08:48:16;;;;;;;10.38;9.25;;;;;;;;;;5038645;28;20037;-58
2021/11/28 08:50:43;;;;;;;11.90;9.55;;;;;;;;;;5041284;28;20395;-56
2021/11/28 08:53:10;;;;;;;11.85;9.10;;;;;;;;;;5048532;28;20127;-54
2021/11/28 08:55:37;;;;;;;11.05;8.38;;;;;;;;;;5042962;28;20041;-54
2021/11/28 08:58:04;;;;;;;7.97;6.97;;;;;;;;;;5043932;28;20079;-50
2021/11/28 09:00:31;;;;;;;12.35;9.02;;;;;;;;;;5039994;28;20041;-50
2021/11/28 09:02:59;;;;;;;10.73;8.65;;;;;;;;;;5038758;28;20075;-52
2021/11/28 09:05:26;;;;;;;7.95;7.15;;;;;;;;;;5036543;28;20132;-54
2021/11/28 09:07:53;;;;;;;10.27;7.72;;;;;;;;;;5021736;28;20375;-57
2021/11/28 09:10:20;;;;;;;9.88;8.20;;;;;;;;;;5041627;28;20071;-59
2021/11/28 09:12:47;;;;;;;11.00;7.45;;;;;;;;;;5039020;28;20123;-59
2021/11/28 09:15:15;;;;;;;10.15;7.90;;;;;;;;;;5039361;28;20525;-59
2021/11/28 09:17:49;;;;;;;9.57;8.23;;;;;;;;;;5044768;28;20484;-60
2021/11/28 09:20:20;;;;;;;9.35;7.03;;;;;;;;;;5046500;28;20056;-58
2021/11/28 09:25:25;;;;;;;9.00;7.30;;;;;;;;;;5035993;28;20045;-53
2021/11/28 09:27:54;;;;;;;8.05;6.97;;;;;;;;;;5043562;28;20052;-60
2021/11/28 09:30:23;;;;;;;8.18;7.10;;;;;;;;;;5042750;28;20037;-58
2021/11/28 09:32:52;;;;;;;10.38;8.02;;;;;;;;;;5046119;28;20033;-56
2021/11/28 09:35:19;;;;;;;9.02;8.13;;;;;;;;;;5044453;28;20404;-58
2021/11/28 09:37:46;;;;;;;9.77;7.93;;;;;;;;;;5041994;28;20040;-58
2021/11/28 09:40:13;;;;;;;10.15;7.97;;;;;;;;;;5045282;28;20099;-56
2021/11/28 09:42:46;;;;;;;8.43;7.05;;;;;;;;;;5039352;28;20048;-55
2021/11/28 09:45:13;;;;;;;10.20;8.05;;;;;;;;;;5043684;28;20055;-57
2021/11/28 09:47:41;;;;;;;11.02;7.53;;;;;;;;;;5047499;28;20033;-57
2021/11/28 09:50:09;;;;;;;10.63;8.32;;;;;;;;;;5051523;28;20037;-59
2021/11/28 09:52:37;;;;;;;8.82;7.85;;;;;;;;;;5040537;28;20041;-57
2021/11/28 09:55:07;;;;;;;9.73;8.18;;;;;;;;;;5045108;28;20060;-58
2021/11/28 09:57:34;;;;;;;11.60;8.45;;;;;;;;;;5041508;28;20060;-58
2021/11/28 10:00:01;;;;;;;9.75;7.78;;;;;;;;;;5045150;28;20049;-57
2021/11/28 10:02:37;;;;;;;10.27;7.50;;;;;;;;;;5046201;28;20045;-58
2021/11/28 10:05:07;;;;;;;9.48;6.90;;;;;;;;;;5044374;28;20107;-59
2021/11/28 10:07:35;;;;;;;11.35;8.82;;;;;;;;;;5045347;28;20069;-60
2021/11/28 10:10:03;;;;;;;12.40;9.23;;;;;;;;;;5047273;28;20041;-59
2021/11/28 10:12:35;;;;;;;10.63;8.43;;;;;;;;;;5041377;28;20052;-59
2021/11/28 10:15:06;;;;;;;9.13;7.82;;;;;;;;;;5042578;28;20045;-57
2021/11/28 10:17:36;;;;;;;11.45;8.52;;;;;;;;;;5041059;28;20041;-57
2021/11/28 10:20:10;;;;;;;11.07;8.93;;;;;;;;;;5046412;28;20119;-56
2021/11/28 10:22:37;;;;;;;9.50;8.35;;;;;;;;;;5039980;28;20045;-58
2021/11/28 10:25:19;;;;;;;10.95;8.93;;;;;;;;;;5047939;28;20049;-55
2021/11/28 10:27:50;;;;;;;11.98;9.05;;;;;;;;;;5042412;28;20459;-57
2021/11/28 10:30:29;;;;;;;11.48;10.23;;;;;;;;;;5045881;28;20044;-58
2021/11/28 10:33:05;;;;;;;12.73;10.20;;;;;;;;;;5038926;28;20041;-53
2021/11/28 10:35:32;;;;;;;12.73;10.55;;;;;;;;;;5039425;28;20128;-57
2021/11/28 10:38:09;;;;;;;16.00;11.00;;;;;;;;;;5041317;28;20503;-59
2021/11/28 10:40:41;;;;;;;10.55;8.63;;;;;;;;;;5046684;28;20068;-59
2021/11/28 10:43:17;;;;;;;14.75;9.82;;;;;;;;;;5045106;28;20548;-60
2021/11/28 10:45:52;;;;;;;14.10;8.93;;;;;;;;;;5044765;28;20056;-58
2021/11/28 10:48:27;;;;;;;10.52;9.38;;;;;;;;;;5045211;28;20442;-58
2021/11/28 10:50:54;;;;;;;13.82;9.75;;;;;;;;;;5043932;28;20045;-58
2021/11/28 10:53:23;;;;;;;11.05;9.82;;;;;;;;;;5039721;28;20037;-52
2021/11/28 10:55:58;;;;;;;10.80;9.48;;;;;;;;;;5035963;28;20365;-57
2021/11/28 10:58:30;;;;;;;11.55;9.13;;;;;;;;;;5039237;28;20049;-59
2021/11/28 11:01:00;;;;;;;12.65;10.10;;;;;;;;;;5043663;28;20051;-58
2021/11/28 11:03:48;;;;;;;15.85;10.27;;;;;;;;;;5026865;28;20037;-58
2021/11/28 11:06:26;;;;;;;10.73;9.48;;;;;;;;;;5044609;28;20045;-56
2021/11/28 11:09:16;;;;;;;12.25;9.57;;;;;;;;;;5043799;28;20041;-59
2021/11/28 11:11:43;;;;;;;11.75;9.45;;;;;;;;;;5043381;28;20041;-58
2021/11/28 11:14:11;;;;;;;14.30;10.23;;;;;;;;;;5048886;28;20048;-59
2021/11/28 11:16:40;;;;;;;11.60;9.65;;;;;;;;;;5048727;28;20166;-59
2021/11/28 11:19:35;;;;;;;12.50;10.45;;;;;;;;;;5044636;28;20045;-59
2021/11/28 11:22:06;;;;;;;12.88;10.07;;;;;;;;;;5047372;28;20084;-60
2021/11/28 11:24:38;;;;;;;12.13;9.60;;;;;;;;;;5048337;28;20049;-58
2021/11/28 11:27:11;;;;;;;18.05;13.88;;;;;;;;;;5048703;28;20052;-60
2021/11/28 11:29:40;;;;;;;13.88;11.25;;;;;;;;;;5045873;28;20037;-58
2021/11/28 11:32:12;;;;;;;13.68;10.20;;;;;;;;;;5045394;28;20491;-58
2021/11/28 11:34:47;;;;;;;12.13;8.88;;;;;;;;;;5044339;28;20041;-58
2021/11/28 11:37:16;;;;;;;14.10;8.25;;;;;;;;;;5039433;28;20048;-59
2021/11/28 11:39:45;;;;;;;10.65;8.60;;;;;;;;;;5041481;28;20045;-59
2021/11/28 11:42:15;;;;;;;11.25;8.50;;;;;;;;;;5047363;28;20044;-58
2021/11/28 11:44:44;;;;;;;11.73;8.65;;;;;;;;;;5045923;28;20415;-62
2021/11/28 11:47:17;;;;;;;11.38;8.68;;;;;;;;;;5047966;28;20137;-63
2021/11/28 11:49:45;;;;;;;15.25;10.80;;;;;;;;;;5048534;28;20499;-61
2021/11/28 11:52:12;;;;;;;12.57;8.80;;;;;;;;;;5049294;28;20492;-63
2021/11/28 11:54:43;;;;;;;13.88;9.82;;;;;;;;;;5052069;28;20056;-60
2021/11/28 11:57:13;;;;;;;12.55;8.35;;;;;;;;;;5045761;28;20064;-62
2021/11/28 12:00:09;;;;;;;10.57;9.07;;;;;;;;;;5018793;28;20091;-60
2021/11/28 12:02:42;;;;;;;13.02;9.23;;;;;;;;;;5047634;28;20044;-60
2021/11/28 12:05:30;;;;;;;11.38;9.23;;;;;;;;;;5043085;28;20626;-61
2021/11/28 12:08:00;;;;;;;11.55;8.35;;;;;;;;;;5050041;28;20052;-65
2021/11/28 12:10:37;;;;;;;11.13;9.30;;;;;;;;;;5042862;28;20200;-70
2021/11/28 12:13:34;;;;;;;9.27;8.32;;;;;;;;;;5045074;28;20068;-63
2021/11/28 12:16:04;;;;;;;14.85;9.93;;;;;;;;;;5042697;28;20395;-64
2021/11/28 12:18:35;;;;;;;9.80;7.05;;;;;;;;;;5040430;28;20492;-66
2021/11/28 12:21:10;;;;;;;8.25;7.32;;;;;;;;;;5025519;28;20037;-62
2021/11/28 12:23:49;;;;;;;11.80;8.60;;;;;;;;;;5041827;28;20063;-58
2021/11/28 12:26:26;;;;;;;7.18;6.45;;;;;;;;;;5040957;28;20072;-60
2021/11/28 12:28:54;;;;;;;10.63;8.93;;;;;;;;;;5041109;28;20049;-60
2021/11/28 12:31:38;;;;;;;9.82;7.75;;;;;;;;;;5041192;28;20124;-62
2021/11/28 12:34:07;;;;;;;11.18;9.10;;;;;;;;;;5043929;28;20037;-62
2021/11/28 12:39:04;;;;;;;7.53;4.90;;;;;;;;;;5042797;28;20065;-63
2021/11/28 12:41:44;;;;;;;6.65;5.38;;;;;;;;;;5046214;28;20048;-63
2021/11/28 12:44:18;;;;;;;13.10;7.97;;;;;;;;;;5050015;28;20053;-62
2021/11/28 12:46:52;;;;;;;15.10;11.20;;;;;;;;;;5049814;28;20514;-62
2021/11/28 12:49:28;;;;;;;20.95;12.48;;;;;;;;;;5050550;28;20052;-65
2021/11/28 12:51:57;;;;;;;15.05;8.50;;;;;;;;;;5051094;28;20064;-60
2021/11/28 12:54:28;;;;;;;10.50;6.50;;;;;;;;;;5050048;28;20555;-61
2021/11/28 12:57:20;;;;;;;8.52;5.97;;;;;;;;;;5046194;28;20038;-63
2021/11/28 13:00:12;;;;;;;8.85;6.50;;;;;;;;;;5039884;28;20049;-62
2021/11/28 13:02:45;;;;;;;9.82;7.40;;;;;;;;;;5041446;28;20045;-62
2021/11/28 13:05:31;;;;;;;10.85;7.82;;;;;;;;;;5046846;28;20048;-62
2021/11/28 13:08:01;;;;;;;10.50;8.20;;;;;;;;;;5048147;28;20041;-63
2021/11/28 13:10:36;;;;;;;11.00;7.97;;;;;;;;;;5042085;28;20049;-62
2021/11/28 13:13:24;;;;;;;;;;;;;;;;;;5046068;28;20048;-60
2021/11/28 13:15:54;;;;;;;8.13;6.43;;;;;;;;;;5045170;28;19999;-63
2021/11/28 13:18:24;;;;;;;9.30;6.55;;;;;;;;;;5045022;28;20088;-62
2021/11/28 13:21:15;;;;;;;8.77;6.25;;;;;;;;;;5047658;28;20045;-62
2021/11/28 13:24:05;;;;;;;6.43;3.95;;;;;;;;;;5027597;28;20055;-61
2021/11/28 13:26:56;;;;;;;3.22;2.33;;;;;;;;;;5041927;28;20056;-61
2021/11/28 13:29:27;;;;;;;3.60;2.45;;;;;;;;;;5029819;28;20049;-63
2021/11/28 13:31:59;;;;;;;2.90;2.33;;;;;;;;;;5044882;28;20057;-59
2021/11/28 13:34:32;;;;;;;2.33;2.10;;;;;;;;;;5027347;28;20392;-58
2021/11/28 13:36:59;;;;;;;5.15;3.20;;;;;;;;;;5044741;28;20048;-61
2021/11/28 13:39:27;;;;;;;3.20;2.28;;;;;;;;;;5042745;28;20041;-61
2021/11/28 13:41:55;;;;;;;4.65;1.30;;;;;;;;;;5045717;28;20048;-61
2021/11/28 13:44:25;;;;;;;1.40;1.30;;;;;;;;;;5040033;28;20053;-61
2021/11/28 13:46:54;;;;;;;3.40;1.50;;;;;;;;;;5042161;28;20513;-61
2021/11/28 13:49:26;;;;;;;1.60;1.50;;;;;;;;;;5042141;28;20495;-60
2021/11/28 13:52:08;;;;;;;1.10;1.10;;;;;;;;;;5041904;28;20064;-60
2021/11/28 13:54:38;;;;;;;1.42;1.33;;;;;;;;;;5043598;28;20037;-60
2021/11/28 13:57:08;;;;;;;1.60;1.50;;;;;;;;;;5038855;28;20411;-61
2021/11/28 13:59:42;;;;;;;4.38;2.05;;;;;;;;;;5037926;28;20042;-61
2021/11/28 14:02:35;;;;;;;1.75;1.45;;;;;;;;;;5042371;28;20040;-58
2021/11/28 14:05:14;;;;;;;1.90;1.38;;;;;;;;;;5044432;28;20051;-58
2021/11/28 14:07:46;;;;;;;1.20;1.20;;;;;;;;;;5038115;28;20072;-60
2021/11/28 14:10:27;;;;;;;1.50;1.40;;;;;;;;;;5037076;28;20675;-59
2021/11/28 14:12:56;;;;;;;2.10;1.90;;;;;;;;;;5038126;28;20041;-60
2021/11/28 14:15:29;;;;;;;11.13;7.03;;;;;;;;;;5038182;28;20049;-59
2021/11/28 14:18:01;;;;;;;4.90;4.18;;;;;;;;;;5048270;28;20041;-62
2021/11/28 14:20:30;;;;;;;35.95;26.50;;;;;;;;;;5034884;28;20083;-62
2021/11/28 14:22:58;;;;;;;5.07;4.53;;;;;;;;;;5027485;28;20067;-58
2021/11/28 14:25:44;;;;;;;4.65;3.00;;;;;;;;;;5040542;28;20044;-59
2021/11/28 14:28:24;;;;;;;3.78;3.47;;;;;;;;;;5036993;28;20407;-59
2021/11/28 14:30:56;;;;;;;3.80;3.28;;;;;;;;;;5043473;28;20037;-60
2021/11/28 14:33:32;;;;;;;2.58;2.35;;;;;;;;;;5051372;28;20048;-59
2021/11/28 14:36:00;;;;;;;1.83;1.73;;;;;;;;;;5049958;28;20048;-60
2021/11/28 14:38:49;;;;;;;3.75;3.45;;;;;;;;;;5049049;28;20503;-61
2021/11/28 14:41:24;;;;;;;6.78;6.03;;;;;;;;;;5050466;28;20049;-61
2021/11/28 14:43:57;;;;;;;3.55;3.25;;;;;;;;;;5049240;28;20071;-61
2021/11/28 14:46:32;;;;;;;3.20;2.95;;;;;;;;;;5030288;28;20484;-60
2021/11/28 14:49:05;;;;;;;3.65;3.30;;;;;;;;;;5030507;28;20498;-60
2021/11/28 14:51:46;;;;;;;3.17;2.88;;;;;;;;;;5030780;28;20126;-60
2021/11/28 14:54:21;;;;;;;3.60;3.30;;;;;;;;;;5030432;28;20366;-59
2021/11/28 14:56:50;;;;;;;3.00;2.80;;;;;;;;;;5030745;28;20403;-59
2021/11/28 14:59:28;;;;;;;3.08;2.83;;;;;;;;;;5030532;28;20065;-60
2021/11/28 15:02:05;;;;;;;2.88;2.67;;;;;;;;;;5030464;28;20041;-61
2021/11/28 15:04:32;;;;;;;2.72;2.53;;;;;;;;;;5033653;28;20053;-60
2021/11/28 15:07:02;;;;;;;2.28;2.08;;;;;;;;;;5035789;28;20050;-61
2021/11/28 15:09:32;;;;;;;3.22;2.97;;;;;;;;;;5036678;28;20041;-61
2021/11/28 15:12:00;;;;;;;3.05;2.78;;;;;;;;;;5036121;28;20041;-61
2021/11/28 15:14:28;;;;;;;3.03;2.65;;;;;;;;;;5036423;28;20057;-60
2021/11/28 15:16:56;;;;;;;3.20;2.90;;;;;;;;;;5035894;28;20045;-61
2021/11/28 15:19:28;;;;;;;2.90;2.65;;;;;;;;;;5036171;28;20049;-62
2021/11/28 15:21:56;;;;;;;4.63;3.80;;;;;;;;;;5037066;28;20046;-60